Bristol, New Hampshire
Current Conditions -  °F | °C
As of 11:15 AM on Sunday 25 Jan 2015 (Local Time) from K1P1 Reporting Station
Clear Clear  
Wind Chill: -11°   Ceiling: Unl
Heat Index: -4°   Visibility: 10mi
Dew Point: -12°   Wind: 14mph
Humidity: 56%   Direction: 290°WNW
Pressure: 29.61"   Gusts: 29mph
Location:  43.6°N, 71.75°W
Report Text: K1P1 251615Z AUTO 29012G25KT 10SM CLR M04/M12 A2961 RMK AO2 T10431118
Loading
Personal Weather Stations






























Interactive Weather Map New forecast layout! Learn more

10-Day Weather Forecast

Advertisements
Track Severe Weather on mobile